sensor_id;sensor_type;location;lat;lon;timestamp;P1;durP1;ratioP1;P2;durP2;ratioP2
30000;SDS011;16845;48.670;9.000;2024-02-15T00:00:51;2.63;;;1.38;;
30000;SDS011;16845;48.670;9.000;2024-02-15T00:03:18;5.22;;;1.95;;
30000;SDS011;16845;48.670;9.000;2024-02-15T00:05:47;2.25;;;1.30;;
30000;SDS011;16845;48.670;9.000;2024-02-15T00:08:13;3.17;;;1.70;;
30000;SDS011;16845;48.670;9.000;2024-02-15T00:10:41;3.70;;;1.83;;
30000;SDS011;16845;48.670;9.000;2024-02-15T00:59:45;2.63;;;1.85;;
30000;SDS011;16845;48.670;9.000;2024-02-15T01:02:12;5.82;;;2.10;;
30000;SDS011;16845;48.670;9.000;2024-02-15T01:04:38;2.53;;;1.90;;
30000;SDS011;16845;48.670;9.000;2024-02-15T01:07:05;4.85;;;2.30;;
30000;SDS011;16845;48.670;9.000;2024-02-15T01:09:32;4.43;;;2.50;;
30000;SDS011;16845;48.670;9.000;2024-02-15T01:11:58;6.67;;;2.20;;
30000;SDS011;16845;48.670;9.000;2024-02-15T01:14:27;4.43;;;2.00;;
30000;SDS011;16845;48.670;9.000;2024-02-15T01:17:14;5.53;;;2.20;;
30000;SDS011;16845;48.670;9.000;2024-02-15T01:23:17;3.40;;;2.00;;
30000;SDS011;16845;48.670;9.000;2024-02-15T01:25:45;4.07;;;2.25;;
30000;SDS011;16845;48.670;9.000;2024-02-15T01:28:12;5.53;;;2.20;;
30000;SDS011;16845;48.670;9.000;2024-02-15T01:30:39;5.20;;;2.53;;
30000;SDS011;16845;48.670;9.000;2024-02-15T01:33:07;3.73;;;2.03;;
30000;SDS011;16845;48.670;9.000;2024-02-15T01:35:33;4.30;;;2.40;;
30000;SDS011;16845;48.670;9.000;2024-02-15T01:40:27;4.50;;;2.13;;
30000;SDS011;16845;48.670;9.000;2024-02-15T01:42:54;5.37;;;2.30;;
30000;SDS011;16845;48.670;9.000;2024-02-15T01:45:21;4.07;;;1.93;;
30000;SDS011;16845;48.670;9.000;2024-02-15T01:47:48;3.80;;;2.17;;
30000;SDS011;16845;48.670;9.000;2024-02-15T01:50:16;7.05;;;2.05;;
30000;SDS011;16845;48.670;9.000;2024-02-15T01:52:43;5.55;;;2.22;;
30000;SDS011;16845;48.670;9.000;2024-02-15T01:58:36;5.15;;;2.63;;
30000;SDS011;16845;48.670;9.000;2024-02-15T02:01:06;5.55;;;2.28;;
30000;SDS011;16845;48.670;9.000;2024-02-15T02:03:37;6.93;;;2.80;;
30000;SDS011;16845;48.670;9.000;2024-02-15T02:06:19;4.20;;;2.10;;
30000;SDS011;16845;48.670;9.000;2024-02-15T02:08:51;6.43;;;2.17;;
30000;SDS011;16845;48.670;9.000;2024-02-15T02:11:29;5.97;;;1.83;;
30000;SDS011;16845;48.670;9.000;2024-02-15T02:13:56;4.78;;;1.98;;
30000;SDS011;16845;48.670;9.000;2024-02-15T02:16:26;5.15;;;3.30;;
30000;SDS011;16845;48.670;9.000;2024-02-15T02:19:04;3.17;;;2.00;;
30000;SDS011;16845;48.670;9.000;2024-02-15T02:21:34;5.38;;;2.53;;
30000;SDS011;16845;48.670;9.000;2024-02-15T02:24:03;5.60;;;2.03;;
30000;SDS011;16845;48.670;9.000;2024-02-15T02:26:36;6.25;;;2.05;;
30000;SDS011;16845;48.670;9.000;2024-02-15T02:29:05;4.93;;;2.17;;
30000;SDS011;16845;48.670;9.000;2024-02-15T02:38:30;3.83;;;1.95;;
30000;SDS011;16845;48.670;9.000;2024-02-15T02:41:20;6.32;;;2.63;;
30000;SDS011;16845;48.670;9.000;2024-02-15T02:43:48;6.87;;;2.33;;
30000;SDS011;16845;48.670;9.000;2024-02-15T02:46:16;4.70;;;2.22;;
30000;SDS011;16845;48.670;9.000;2024-02-15T02:48:59;5.57;;;2.13;;
30000;SDS011;16845;48.670;9.000;2024-02-15T02:51:27;5.15;;;2.00;;
30000;SDS011;16845;48.670;9.000;2024-02-15T02:53:54;4.85;;;2.28;;
30000;SDS011;16845;48.670;9.000;2024-02-15T02:56:21;4.25;;;2.30;;
30000;SDS011;16845;48.670;9.000;2024-02-15T02:58:50;7.53;;;2.50;;
30000;SDS011;16845;48.670;9.000;2024-02-15T03:01:19;5.88;;;2.15;;
30000;SDS011;16845;48.670;9.000;2024-02-15T03:03:55;5.25;;;2.10;;
30000;SDS011;16845;48.670;9.000;2024-02-15T03:06:22;7.85;;;3.10;;
30000;SDS011;16845;48.670;9.000;2024-02-15T03:08:49;6.63;;;2.67;;
30000;SDS011;16845;48.670;9.000;2024-02-15T03:11:15;5.18;;;2.40;;
30000;SDS011;16845;48.670;9.000;2024-02-15T03:49:25;4.90;;;1.70;;
30000;SDS011;16845;48.670;9.000;2024-02-15T03:51:52;6.05;;;2.35;;
30000;SDS011;16845;48.670;9.000;2024-02-15T03:54:19;3.25;;;2.00;;
30000;SDS011;16845;48.670;9.000;2024-02-15T03:56:48;4.43;;;2.30;;
30000;SDS011;16845;48.670;9.000;2024-02-15T03:59:15;3.47;;;2.10;;
30000;SDS011;16845;48.670;9.000;2024-02-15T04:01:42;6.10;;;2.33;;
30000;SDS011;16845;48.670;9.000;2024-02-15T04:04:09;8.27;;;2.43;;
30000;SDS011;16845;48.670;9.000;2024-02-15T04:06:37;7.47;;;2.20;;
30000;SDS011;16845;48.670;9.000;2024-02-15T04:09:03;5.07;;;2.25;;
30000;SDS011;16845;48.670;9.000;2024-02-15T04:11:31;4.80;;;2.20;;
30000;SDS011;16845;48.670;9.000;2024-02-15T04:13:58;8.93;;;2.77;;
30000;SDS011;16845;48.670;9.000;2024-02-15T04:16:24;3.38;;;2.00;;
30000;SDS011;16845;48.670;9.000;2024-02-15T04:18:51;3.90;;;2.10;;
30000;SDS011;16845;48.670;9.000;2024-02-15T04:21:18;2.85;;;2.15;;
30000;SDS011;16845;48.670;9.000;2024-02-15T04:23:46;3.67;;;2.10;;
30000;SDS011;16845;48.670;9.000;2024-02-15T04:26:12;2.83;;;1.75;;
30000;SDS011;16845;48.670;9.000;2024-02-15T04:28:39;4.67;;;2.03;;
30000;SDS011;16845;48.670;9.000;2024-02-15T04:31:06;12.07;;;2.33;;
30000;SDS011;16845;48.670;9.000;2024-02-15T04:33:32;4.27;;;2.27;;
30000;SDS011;16845;48.670;9.000;2024-02-15T04:46:14;6.97;;;2.33;;
30000;SDS011;16845;48.670;9.000;2024-02-15T04:48:46;6.13;;;2.23;;
30000;SDS011;16845;48.670;9.000;2024-02-15T04:51:13;3.33;;;2.45;;
30000;SDS011;16845;48.670;9.000;2024-02-15T04:53:39;5.03;;;2.53;;
30000;SDS011;16845;48.670;9.000;2024-02-15T04:56:06;3.43;;;2.50;;
30000;SDS011;16845;48.670;9.000;2024-02-15T04:58:34;2.65;;;2.30;;
30000;SDS011;16845;48.670;9.000;2024-02-15T05:01:01;5.03;;;2.63;;
30000;SDS011;16845;48.670;9.000;2024-02-15T05:03:28;10.10;;;2.80;;
30000;SDS011;16845;48.670;9.000;2024-02-15T05:05:54;6.85;;;2.53;;
30000;SDS011;16845;48.670;9.000;2024-02-15T05:08:21;8.07;;;2.80;;
30000;SDS011;16845;48.670;9.000;2024-02-15T05:10:47;7.55;;;3.28;;
30000;SDS011;16845;48.670;9.000;2024-02-15T05:13:14;6.25;;;2.60;;
30000;SDS011;16845;48.670;9.000;2024-02-15T05:15:42;6.80;;;2.57;;
30000;SDS011;16845;48.670;9.000;2024-02-15T05:18:08;9.45;;;3.42;;
30000;SDS011;16845;48.670;9.000;2024-02-15T05:20:35;3.97;;;2.28;;
30000;SDS011;16845;48.670;9.000;2024-02-15T05:23:02;5.03;;;2.33;;
30000;SDS011;16845;48.670;9.000;2024-02-15T05:25:28;6.68;;;2.63;;
30000;SDS011;16845;48.670;9.000;2024-02-15T05:27:55;6.63;;;2.43;;
30000;SDS011;16845;48.670;9.000;2024-02-15T05:30:23;8.48;;;3.30;;
30000;SDS011;16845;48.670;9.000;2024-02-15T05:32:51;11.67;;;2.73;;
30000;SDS011;16845;48.670;9.000;2024-02-15T05:35:18;6.88;;;2.70;;
30000;SDS011;16845;48.670;9.000;2024-02-15T05:37:44;5.85;;;2.55;;
30000;SDS011;16845;48.670;9.000;2024-02-15T05:40:11;5.17;;;2.80;;
30000;SDS011;16845;48.670;9.000;2024-02-15T05:42:38;4.45;;;2.53;;
30000;SDS011;16845;48.670;9.000;2024-02-15T05:45:26;5.03;;;2.75;;
30000;SDS011;16845;48.670;9.000;2024-02-15T05:47:56;3.92;;;3.00;;
30000;SDS011;16845;48.670;9.000;2024-02-15T05:50:22;5.78;;;3.03;;
30000;SDS011;16845;48.670;9.000;2024-02-15T05:52:49;5.20;;;2.78;;
30000;SDS011;16845;48.670;9.000;2024-02-15T05:55:16;4.03;;;3.00;;
30000;SDS011;16845;48.670;9.000;2024-02-15T05:57:42;6.38;;;3.13;;
30000;SDS011;16845;48.670;9.000;2024-02-15T06:00:09;5.87;;;2.67;;
30000;SDS011;16845;48.670;9.000;2024-02-15T06:02:47;7.75;;;2.83;;
30000;SDS011;16845;48.670;9.000;2024-02-15T06:05:15;3.93;;;2.33;;
30000;SDS011;16845;48.670;9.000;2024-02-15T06:07:41;4.63;;;2.83;;
30000;SDS011;16845;48.670;9.000;2024-02-15T06:10:08;7.80;;;4.00;;
30000;SDS011;16845;48.670;9.000;2024-02-15T06:12:35;4.18;;;2.80;;
30000;SDS011;16845;48.670;9.000;2024-02-15T06:15:03;4.53;;;2.90;;
30000;SDS011;16845;48.670;9.000;2024-02-15T06:17:30;3.25;;;2.38;;
30000;SDS011;16845;48.670;9.000;2024-02-15T06:19:56;9.20;;;2.97;;
30000;SDS011;16845;48.670;9.000;2024-02-15T06:22:24;7.00;;;2.93;;
30000;SDS011;16845;48.670;9.000;2024-02-15T06:24:51;3.88;;;3.00;;
30000;SDS011;16845;48.670;9.000;2024-02-15T06:27:17;4.20;;;3.22;;
30000;SDS011;16845;48.670;9.000;2024-02-15T06:29:44;4.00;;;3.10;;
30000;SDS011;16845;48.670;9.000;2024-02-15T06:32:11;4.68;;;3.38;;
30000;SDS011;16845;48.670;9.000;2024-02-15T06:34:37;4.03;;;2.70;;
30000;SDS011;16845;48.670;9.000;2024-02-15T06:37:04;4.90;;;2.80;;
30000;SDS011;16845;48.670;9.000;2024-02-15T06:39:32;8.95;;;3.20;;
30000;SDS011;16845;48.670;9.000;2024-02-15T06:41:58;6.13;;;2.38;;
30000;SDS011;16845;48.670;9.000;2024-02-15T06:44:28;4.85;;;2.92;;
30000;SDS011;16845;48.670;9.000;2024-02-15T06:46:54;7.82;;;2.70;;
30000;SDS011;16845;48.670;9.000;2024-02-15T06:49:21;8.65;;;3.17;;
30000;SDS011;16845;48.670;9.000;2024-02-15T06:51:47;4.45;;;2.92;;
30000;SDS011;16845;48.670;9.000;2024-02-15T06:54:15;4.55;;;3.00;;
30000;SDS011;16845;48.670;9.000;2024-02-15T06:56:43;4.90;;;3.00;;
30000;SDS011;16845;48.670;9.000;2024-02-15T06:59:10;6.00;;;3.13;;
30000;SDS011;16845;48.670;9.000;2024-02-15T07:01:36;5.50;;;3.20;;
30000;SDS011;16845;48.670;9.000;2024-02-15T07:04:03;6.13;;;3.15;;
30000;SDS011;16845;48.670;9.000;2024-02-15T07:06:30;6.82;;;3.42;;
30000;SDS011;16845;48.670;9.000;2024-02-15T07:08:57;3.78;;;3.28;;
30000;SDS011;16845;48.670;9.000;2024-02-15T07:11:23;6.97;;;3.13;;
30000;SDS011;16845;48.670;9.000;2024-02-15T07:13:51;3.25;;;2.50;;
30000;SDS011;16845;48.670;9.000;2024-02-15T07:16:18;5.53;;;2.92;;
30000;SDS011;16845;48.670;9.000;2024-02-15T07:18:44;5.75;;;3.15;;
30000;SDS011;16845;48.670;9.000;2024-02-15T07:21:11;6.25;;;2.85;;
30000;SDS011;16845;48.670;9.000;2024-02-15T07:23:38;5.63;;;3.13;;
30000;SDS011;16845;48.670;9.000;2024-02-15T07:26:04;4.43;;;2.63;;
30000;SDS011;16845;48.670;9.000;2024-02-15T07:28:31;6.22;;;3.60;;
30000;SDS011;16845;48.670;9.000;2024-02-15T07:30:59;5.65;;;2.63;;
30000;SDS011;16845;48.670;9.000;2024-02-15T07:33:26;6.57;;;2.85;;
30000;SDS011;16845;48.670;9.000;2024-02-15T07:35:52;4.47;;;2.92;;
30000;SDS011;16845;48.670;9.000;2024-02-15T07:38:19;4.10;;;2.63;;
30000;SDS011;16845;48.670;9.000;2024-02-15T07:40:46;5.70;;;2.60;;
30000;SDS011;16845;48.670;9.000;2024-02-15T07:43:12;7.72;;;2.80;;
30000;SDS011;16845;48.670;9.000;2024-02-15T07:45:39;8.07;;;3.00;;
30000;SDS011;16845;48.670;9.000;2024-02-15T07:48:07;7.47;;;2.60;;
30000;SDS011;16845;48.670;9.000;2024-02-15T07:50:34;4.82;;;2.80;;
30000;SDS011;16845;48.670;9.000;2024-02-15T07:53:01;5.78;;;2.70;;
30000;SDS011;16845;48.670;9.000;2024-02-15T07:55:27;7.18;;;2.95;;
30000;SDS011;16845;48.670;9.000;2024-02-15T07:57:54;4.68;;;2.33;;
30000;SDS011;16845;48.670;9.000;2024-02-15T08:00:20;7.33;;;2.90;;
30000;SDS011;16845;48.670;9.000;2024-02-15T08:02:47;3.83;;;2.55;;
30000;SDS011;16845;48.670;9.000;2024-02-15T08:05:15;3.60;;;2.77;;
30000;SDS011;16845;48.670;9.000;2024-02-15T08:07:42;3.90;;;2.50;;
30000;SDS011;16845;48.670;9.000;2024-02-15T08:10:09;9.77;;;2.55;;
30000;SDS011;16845;48.670;9.000;2024-02-15T08:12:36;4.70;;;2.20;;
30000;SDS011;16845;48.670;9.000;2024-02-15T08:15:03;3.38;;;2.42;;
30000;SDS011;16845;48.670;9.000;2024-02-15T08:17:30;4.60;;;2.45;;
30000;SDS011;16845;48.670;9.000;2024-02-15T08:19:57;4.47;;;2.83;;
30000;SDS011;16845;48.670;9.000;2024-02-15T08:22:25;6.13;;;2.38;;
30000;SDS011;16845;48.670;9.000;2024-02-15T08:24:51;5.82;;;2.50;;
30000;SDS011;16845;48.670;9.000;2024-02-15T08:27:18;3.97;;;2.13;;
30000;SDS011;16845;48.670;9.000;2024-02-15T08:29:45;6.37;;;2.63;;
30000;SDS011;16845;48.670;9.000;2024-02-15T08:32:11;8.40;;;2.93;;
30000;SDS011;16845;48.670;9.000;2024-02-15T08:34:38;5.25;;;2.45;;
30000;SDS011;16845;48.670;9.000;2024-02-15T08:37:05;9.60;;;3.30;;
30000;SDS011;16845;48.670;9.000;2024-02-15T08:39:33;6.93;;;2.50;;
30000;SDS011;16845;48.670;9.000;2024-02-15T08:41:59;7.82;;;3.40;;
30000;SDS011;16845;48.670;9.000;2024-02-15T08:44:26;4.33;;;2.40;;
30000;SDS011;16845;48.670;9.000;2024-02-15T08:46:52;5.00;;;2.43;;
30000;SDS011;16845;48.670;9.000;2024-02-15T08:49:19;4.93;;;2.85;;
30000;SDS011;16845;48.670;9.000;2024-02-15T08:51:45;5.17;;;2.50;;
30000;SDS011;16845;48.670;9.000;2024-02-15T08:54:12;5.93;;;3.40;;
30000;SDS011;16845;48.670;9.000;2024-02-15T08:56:40;5.20;;;2.55;;
30000;SDS011;16845;48.670;9.000;2024-02-15T08:59:07;3.97;;;2.90;;
30000;SDS011;16845;48.670;9.000;2024-02-15T09:01:33;6.35;;;2.42;;
30000;SDS011;16845;48.670;9.000;2024-02-15T09:04:00;3.55;;;2.30;;
30000;SDS011;16845;48.670;9.000;2024-02-15T09:06:26;11.52;;;3.47;;
30000;SDS011;16845;48.670;9.000;2024-02-15T09:08:53;5.20;;;2.50;;
30000;SDS011;16845;48.670;9.000;2024-02-15T09:11:20;5.65;;;2.50;;
30000;SDS011;16845;48.670;9.000;2024-02-15T09:13:47;4.67;;;2.20;;
30000;SDS011;16845;48.670;9.000;2024-02-15T09:16:14;6.82;;;2.10;;
30000;SDS011;16845;48.670;9.000;2024-02-15T09:18:41;2.80;;;2.10;;
30000;SDS011;16845;48.670;9.000;2024-02-15T09:21:07;3.57;;;2.03;;
30000;SDS011;16845;48.670;9.000;2024-02-15T09:23:34;8.23;;;2.00;;
30000;SDS011;16845;48.670;9.000;2024-02-15T09:26:00;5.88;;;2.00;;
30000;SDS011;16845;48.670;9.000;2024-02-15T09:28:27;3.55;;;1.77;;
30000;SDS011;16845;48.670;9.000;2024-02-15T09:30:55;3.83;;;2.10;;
30000;SDS011;16845;48.670;9.000;2024-02-15T09:33:22;7.07;;;2.50;;
30000;SDS011;16845;48.670;9.000;2024-02-15T09:35:48;12.02;;;2.55;;
30000;SDS011;16845;48.670;9.000;2024-02-15T09:38:15;5.87;;;2.03;;
30000;SDS011;16845;48.670;9.000;2024-02-15T09:40:42;5.93;;;1.85;;
30000;SDS011;16845;48.670;9.000;2024-02-15T09:43:09;3.38;;;1.73;;
30000;SDS011;16845;48.670;9.000;2024-02-15T09:45:36;2.20;;;1.40;;
30000;SDS011;16845;48.670;9.000;2024-02-15T09:48:05;5.10;;;1.83;;
30000;SDS011;16845;48.670;9.000;2024-02-15T09:50:32;4.60;;;1.70;;
30000;SDS011;16845;48.670;9.000;2024-02-15T09:53:00;3.08;;;1.33;;
30000;SDS011;16845;48.670;9.000;2024-02-15T09:55:29;4.60;;;1.40;;
30000;SDS011;16845;48.670;9.000;2024-02-15T09:57:55;2.28;;;1.40;;
30000;SDS011;16845;48.670;9.000;2024-02-15T10:00:22;2.65;;;1.40;;
30000;SDS011;16845;48.670;9.000;2024-02-15T10:02:50;4.93;;;1.50;;
30000;SDS011;16845;48.670;9.000;2024-02-15T10:05:18;3.55;;;1.70;;
30000;SDS011;16845;48.670;9.000;2024-02-15T10:07:45;4.28;;;1.40;;
30000;SDS011;16845;48.670;9.000;2024-02-15T10:10:16;1.42;;;1.20;;
30000;SDS011;16845;48.670;9.000;2024-02-15T10:12:43;2.53;;;1.20;;
30000;SDS011;16845;48.670;9.000;2024-02-15T10:15:10;5.57;;;1.30;;
30000;SDS011;16845;48.670;9.000;2024-02-15T10:17:56;4.22;;;1.27;;
30000;SDS011;16845;48.670;9.000;2024-02-15T10:20:25;3.47;;;1.60;;
30000;SDS011;16845;48.670;9.000;2024-02-15T10:22:52;2.00;;;0.85;;
30000;SDS011;16845;48.670;9.000;2024-02-15T10:25:19;3.28;;;0.95;;
30000;SDS011;16845;48.670;9.000;2024-02-15T10:27:46;3.30;;;1.08;;
30000;SDS011;16845;48.670;9.000;2024-02-15T10:30:14;3.75;;;1.20;;
30000;SDS011;16845;48.670;9.000;2024-02-15T10:32:41;3.25;;;1.40;;
30000;SDS011;16845;48.670;9.000;2024-02-15T10:35:09;1.40;;;0.88;;
30000;SDS011;16845;48.670;9.000;2024-02-15T10:37:37;2.38;;;0.98;;
30000;SDS011;16845;48.670;9.000;2024-02-15T10:40:04;2.38;;;1.23;;
30000;SDS011;16845;48.670;9.000;2024-02-15T10:42:31;2.78;;;1.05;;
30000;SDS011;16845;48.670;9.000;2024-02-15T10:44:59;1.98;;;1.13;;
30000;SDS011;16845;48.670;9.000;2024-02-15T10:47:28;3.30;;;1.42;;
30000;SDS011;16845;48.670;9.000;2024-02-15T10:49:54;3.58;;;1.30;;
30000;SDS011;16845;48.670;9.000;2024-02-15T10:52:21;5.57;;;1.53;;
30000;SDS011;16845;48.670;9.000;2024-02-15T10:54:52;3.55;;;1.10;;
30000;SDS011;16845;48.670;9.000;2024-02-15T10:57:28;0.90;;;0.60;;
30000;SDS011;16845;48.670;9.000;2024-02-15T10:59:57;2.00;;;0.80;;
30000;SDS011;16845;48.670;9.000;2024-02-15T11:02:28;3.80;;;1.13;;
30000;SDS011;16845;48.670;9.000;2024-02-15T11:04:59;1.52;;;0.70;;
30000;SDS011;16845;48.670;9.000;2024-02-15T11:07:28;3.47;;;0.80;;
30000;SDS011;16845;48.670;9.000;2024-02-15T11:09:59;2.33;;;0.70;;
30000;SDS011;16845;48.670;9.000;2024-02-15T11:12:26;2.22;;;1.08;;
30000;SDS011;16845;48.670;9.000;2024-02-15T11:14:53;5.03;;;1.35;;
30000;SDS011;16845;48.670;9.000;2024-02-15T11:20:20;4.78;;;0.98;;
30000;SDS011;16845;48.670;9.000;2024-02-15T11:23:13;3.33;;;0.90;;
30000;SDS011;16845;48.670;9.000;2024-02-15T11:26:02;5.80;;;1.07;;
30000;SDS011;16845;48.670;9.000;2024-02-15T11:28:34;2.88;;;1.30;;
30000;SDS011;16845;48.670;9.000;2024-02-15T11:31:03;1.83;;;0.85;;
30000;SDS011;16845;48.670;9.000;2024-02-15T11:33:30;4.05;;;0.93;;
30000;SDS011;16845;48.670;9.000;2024-02-15T11:36:04;2.55;;;1.05;;
30000;SDS011;16845;48.670;9.000;2024-02-15T11:38:31;1.80;;;1.00;;
30000;SDS011;16845;48.670;9.000;2024-02-15T11:41:02;0.95;;;0.47;;
30000;SDS011;16845;48.670;9.000;2024-02-15T11:43:46;2.78;;;1.05;;
30000;SDS011;16845;48.670;9.000;2024-02-15T11:46:14;2.80;;;1.05;;
30000;SDS011;16845;48.670;9.000;2024-02-15T11:48:41;1.73;;;0.80;;
30000;SDS011;16845;48.670;9.000;2024-02-15T11:51:08;1.67;;;0.77;;
30000;SDS011;16845;48.670;9.000;2024-02-15T11:53:35;2.33;;;1.07;;
30000;SDS011;16845;48.670;9.000;2024-02-15T11:56:03;1.33;;;0.73;;
30000;SDS011;16845;48.670;9.000;2024-02-15T11:58:30;2.78;;;0.93;;
30000;SDS011;16845;48.670;9.000;2024-02-15T12:00:58;2.23;;;0.80;;
30000;SDS011;16845;48.670;9.000;2024-02-15T12:03:25;1.25;;;0.70;;
30000;SDS011;16845;48.670;9.000;2024-02-15T12:05:52;2.08;;;0.68;;
30000;SDS011;16845;48.670;9.000;2024-02-15T12:08:20;1.17;;;0.60;;
30000;SDS011;16845;48.670;9.000;2024-02-15T12:10:56;2.40;;;1.00;;
30000;SDS011;16845;48.670;9.000;2024-02-15T12:13:24;1.73;;;0.88;;
30000;SDS011;16845;48.670;9.000;2024-02-15T12:15:57;1.20;;;0.73;;
30000;SDS011;16845;48.670;9.000;2024-02-15T12:18:24;4.53;;;0.82;;
30000;SDS011;16845;48.670;9.000;2024-02-15T12:20:50;3.90;;;1.30;;
30000;SDS011;16845;48.670;9.000;2024-02-15T12:23:17;3.10;;;1.10;;
30000;SDS011;16845;48.670;9.000;2024-02-15T12:25:50;1.73;;;1.13;;
30000;SDS011;16845;48.670;9.000;2024-02-15T12:28:17;1.50;;;1.13;;
30000;SDS011;16845;48.670;9.000;2024-02-15T12:30:45;1.50;;;1.20;;
30000;SDS011;16845;48.670;9.000;2024-02-15T12:33:12;2.08;;;1.10;;
30000;SDS011;16845;48.670;9.000;2024-02-15T12:35:40;2.10;;;1.02;;
30000;SDS011;16845;48.670;9.000;2024-02-15T12:38:06;1.67;;;1.05;;
30000;SDS011;16845;48.670;9.000;2024-02-15T12:40:33;3.90;;;1.08;;
30000;SDS011;16845;48.670;9.000;2024-02-15T12:43:00;3.45;;;1.60;;
30000;SDS011;16845;48.670;9.000;2024-02-15T12:45:27;2.77;;;1.10;;
30000;SDS011;16845;48.670;9.000;2024-02-15T12:47:56;3.58;;;1.05;;
30000;SDS011;16845;48.670;9.000;2024-02-15T12:50:26;4.15;;;1.10;;
30000;SDS011;16845;48.670;9.000;2024-02-15T12:52:54;1.25;;;0.70;;
30000;SDS011;16845;48.670;9.000;2024-02-15T12:55:21;1.70;;;1.30;;
30000;SDS011;16845;48.670;9.000;2024-02-15T12:57:49;2.75;;;1.23;;
30000;SDS011;16845;48.670;9.000;2024-02-15T13:00:20;2.15;;;1.20;;
30000;SDS011;16845;48.670;9.000;2024-02-15T13:02:48;1.73;;;1.15;;
30000;SDS011;16845;48.670;9.000;2024-02-15T13:05:17;2.42;;;0.80;;
30000;SDS011;16845;48.670;9.000;2024-02-15T13:07:45;2.33;;;1.05;;
30000;SDS011;16845;48.670;9.000;2024-02-15T13:10:12;3.53;;;1.55;;
30000;SDS011;16845;48.670;9.000;2024-02-15T13:12:39;3.67;;;1.40;;
30000;SDS011;16845;48.670;9.000;2024-02-15T13:15:06;2.40;;;1.20;;
30000;SDS011;16845;48.670;9.000;2024-02-15T13:19:59;1.80;;;1.05;;
30000;SDS011;16845;48.670;9.000;2024-02-15T13:24:54;2.13;;;1.02;;
30000;SDS011;16845;48.670;9.000;2024-02-15T13:27:21;3.13;;;1.00;;
30000;SDS011;16845;48.670;9.000;2024-02-15T13:29:47;3.80;;;1.20;;
30000;SDS011;16845;48.670;9.000;2024-02-15T13:32:14;2.40;;;1.27;;
30000;SDS011;16845;48.670;9.000;2024-02-15T13:34:41;2.23;;;1.10;;
30000;SDS011;16845;48.670;9.000;2024-02-15T13:37:07;2.47;;;1.10;;
30000;SDS011;16845;48.670;9.000;2024-02-15T13:39:35;4.13;;;1.48;;
30000;SDS011;16845;48.670;9.000;2024-02-15T13:42:02;1.67;;;1.10;;
30000;SDS011;16845;48.670;9.000;2024-02-15T13:44:29;2.80;;;1.50;;
30000;SDS011;16845;48.670;9.000;2024-02-15T13:46:55;2.70;;;1.23;;
30000;SDS011;16845;48.670;9.000;2024-02-15T13:49:22;2.35;;;1.20;;
30000;SDS011;16845;48.670;9.000;2024-02-15T13:51:57;2.40;;;1.13;;
30000;SDS011;16845;48.670;9.000;2024-02-15T13:54:24;3.53;;;1.08;;
30000;SDS011;16845;48.670;9.000;2024-02-15T13:56:52;5.03;;;1.30;;
30000;SDS011;16845;48.670;9.000;2024-02-15T13:59:19;4.15;;;1.00;;
30000;SDS011;16845;48.670;9.000;2024-02-15T14:01:45;4.27;;;1.20;;
30000;SDS011;16845;48.670;9.000;2024-02-15T14:04:12;3.13;;;1.27;;
30000;SDS011;16845;48.670;9.000;2024-02-15T14:06:39;3.05;;;1.33;;
30000;SDS011;16845;48.670;9.000;2024-02-15T14:09:06;4.32;;;1.17;;
30000;SDS011;16845;48.670;9.000;2024-02-15T14:11:32;3.07;;;1.00;;
30000;SDS011;16845;48.670;9.000;2024-02-15T14:14:00;3.40;;;1.17;;
30000;SDS011;16845;48.670;9.000;2024-02-15T14:16:27;1.95;;;1.25;;
30000;SDS011;16845;48.670;9.000;2024-02-15T14:18:53;1.70;;;1.05;;
30000;SDS011;16845;48.670;9.000;2024-02-15T14:21:20;3.47;;;1.23;;
30000;SDS011;16845;48.670;9.000;2024-02-15T14:23:47;6.80;;;1.75;;
30000;SDS011;16845;48.670;9.000;2024-02-15T14:26:13;3.03;;;1.30;;
30000;SDS011;16845;48.670;9.000;2024-02-15T14:28:40;4.13;;;1.48;;
30000;SDS011;16845;48.670;9.000;2024-02-15T14:31:09;3.55;;;1.30;;
30000;SDS011;16845;48.670;9.000;2024-02-15T14:33:36;5.05;;;1.60;;
30000;SDS011;16845;48.670;9.000;2024-02-15T14:36:03;3.20;;;1.77;;
30000;SDS011;16845;48.670;9.000;2024-02-15T14:38:31;4.70;;;1.63;;
30000;SDS011;16845;48.670;9.000;2024-02-15T14:40:57;2.23;;;1.27;;
30000;SDS011;16845;48.670;9.000;2024-02-15T14:43:24;3.83;;;1.35;;
30000;SDS011;16845;48.670;9.000;2024-02-15T14:48:20;1.85;;;1.05;;
30000;SDS011;16845;48.670;9.000;2024-02-15T14:50:47;3.90;;;1.48;;
30000;SDS011;16845;48.670;9.000;2024-02-15T14:53:13;5.13;;;1.70;;
30000;SDS011;16845;48.670;9.000;2024-02-15T14:55:40;4.35;;;1.20;;
30000;SDS011;16845;48.670;9.000;2024-02-15T14:58:07;7.17;;;1.40;;
30000;SDS011;16845;48.670;9.000;2024-02-15T15:00:39;5.22;;;1.60;;
30000;SDS011;16845;48.670;9.000;2024-02-15T15:03:06;2.85;;;1.15;;
30000;SDS011;16845;48.670;9.000;2024-02-15T15:05:34;2.28;;;1.30;;
30000;SDS011;16845;48.670;9.000;2024-02-15T15:08:00;4.40;;;1.10;;
30000;SDS011;16845;48.670;9.000;2024-02-15T15:10:27;3.67;;;1.33;;
30000;SDS011;16845;48.670;9.000;2024-02-15T15:12:54;1.50;;;1.30;;
30000;SDS011;16845;48.670;9.000;2024-02-15T15:15:20;3.40;;;1.30;;
30000;SDS011;16845;48.670;9.000;2024-02-15T15:17:47;6.37;;;1.30;;
30000;SDS011;16845;48.670;9.000;2024-02-15T15:20:14;2.70;;;1.45;;
30000;SDS011;16845;48.670;9.000;2024-02-15T15:22:42;2.33;;;1.37;;
30000;SDS011;16845;48.670;9.000;2024-02-15T15:25:08;3.67;;;1.40;;
30000;SDS011;16845;48.670;9.000;2024-02-15T15:27:35;7.10;;;1.20;;
30000;SDS011;16845;48.670;9.000;2024-02-15T15:30:02;2.13;;;1.50;;
30000;SDS011;16845;48.670;9.000;2024-02-15T15:32:28;2.28;;;1.30;;
30000;SDS011;16845;48.670;9.000;2024-02-15T15:34:55;3.03;;;1.45;;
30000;SDS011;16845;48.670;9.000;2024-02-15T15:37:22;6.83;;;1.97;;
30000;SDS011;16845;48.670;9.000;2024-02-15T15:39:49;2.95;;;1.33;;
30000;SDS011;16845;48.670;9.000;2024-02-15T15:42:16;3.13;;;1.55;;
30000;SDS011;16845;48.670;9.000;2024-02-15T15:44:43;4.73;;;1.77;;
30000;SDS011;16845;48.670;9.000;2024-02-15T15:47:09;4.63;;;1.33;;
30000;SDS011;16845;48.670;9.000;2024-02-15T15:49:36;2.23;;;1.30;;
30000;SDS011;16845;48.670;9.000;2024-02-15T15:52:03;2.35;;;1.02;;
30000;SDS011;16845;48.670;9.000;2024-02-15T15:54:30;4.25;;;1.60;;
30000;SDS011;16845;48.670;9.000;2024-02-15T15:56:58;2.30;;;1.40;;
30000;SDS011;16845;48.670;9.000;2024-02-15T15:59:25;1.58;;;1.20;;
30000;SDS011;16845;48.670;9.000;2024-02-15T16:01:51;2.35;;;1.40;;
30000;SDS011;16845;48.670;9.000;2024-02-15T16:04:18;3.97;;;1.80;;
30000;SDS011;16845;48.670;9.000;2024-02-15T16:06:44;4.83;;;1.30;;
30000;SDS011;16845;48.670;9.000;2024-02-15T16:09:11;5.60;;;1.40;;
30000;SDS011;16845;48.670;9.000;2024-02-15T16:11:38;2.63;;;1.53;;
30000;SDS011;16845;48.670;9.000;2024-02-15T16:14:07;2.77;;;1.87;;
30000;SDS011;16845;48.670;9.000;2024-02-15T16:16:35;3.53;;;1.23;;
30000;SDS011;16845;48.670;9.000;2024-02-15T16:19:02;6.53;;;1.53;;
30000;SDS011;16845;48.670;9.000;2024-02-15T16:21:28;4.13;;;1.67;;
30000;SDS011;16845;48.670;9.000;2024-02-15T16:23:55;4.50;;;1.15;;
30000;SDS011;16845;48.670;9.000;2024-02-15T16:26:22;6.00;;;1.40;;
30000;SDS011;16845;48.670;9.000;2024-02-15T16:28:48;1.48;;;1.08;;
30000;SDS011;16845;48.670;9.000;2024-02-15T16:31:16;4.63;;;1.83;;
30000;SDS011;16845;48.670;9.000;2024-02-15T16:33:43;2.80;;;1.63;;
30000;SDS011;16845;48.670;9.000;2024-02-15T16:36:10;4.28;;;2.10;;
30000;SDS011;16845;48.670;9.000;2024-02-15T16:38:36;3.73;;;1.50;;
30000;SDS011;16845;48.670;9.000;2024-02-15T16:41:03;3.83;;;1.55;;
30000;SDS011;16845;48.670;9.000;2024-02-15T16:43:30;4.33;;;2.00;;
30000;SDS011;16845;48.670;9.000;2024-02-15T16:45:56;3.97;;;1.38;;
30000;SDS011;16845;48.670;9.000;2024-02-15T16:48:24;4.00;;;1.55;;
30000;SDS011;16845;48.670;9.000;2024-02-15T16:50:51;3.17;;;2.15;;